Date,TemperatureHighF,TemperatureAvgF,TemperatureLowF,DewpointHighF,DewpointAvgF,DewpointLowF,HumidityHigh,HumidityAvg,HumidityLow,PressureMaxIn,PressureMinIn,WindSpeedMaxMPH,WindSpeedAvgMPH,GustSpeedMaxMPH,PrecipitationSumIn
2013-1-19,59.0,48.5,35.3,37.0,35.1,32.4,89,62,40,30.04,29.96,10,0,10,0.00
2013-1-20,59.1,43.7,30.2,39.7,33.2,28.6,95,70,38,30.05,29.93,12,0,13,0.00
2013-1-21,43.1,34.8,24.1,30.3,22.1,18.4,92,62,38,30.12,29.94,13,1,14,0.00
2013-1-22,40.2,32.4,22.3,21.7,19.6,17.6,90,61,43,30.21,30.09,7,0,10,0.00
2013-1-23,52.9,37.8,25.0,38.4,30.4,20.3,93,76,55,30.12,29.95,6,0,7,0.00
2013-1-24,44.4,39.6,35.9,41.5,26.2,20.4,94,60,48,30.21,29.97,12,1,14,0.00
2013-1-25,51.6,40.2,31.1,47.5,34.2,24.0,94,81,50,30.03,29.82,12,0,12,0.09
2013-1-26,55.4,42.7,29.3,38.6,33.0,27.8,95,72,41,30.12,30.02,7,0,8,0.00
2013-1-27,64.1,56.0,47.3,54.1,46.7,35.6,82,71,63,30.04,29.90,13,2,16,0.00
2013-1-28,72.2,63.8,57.7,62.7,58.0,53.8,93,82,69,29.95,29.83,18,4,20,0.02
2013-1-29,75.7,68.4,59.7,65.3,61.4,57.6,94,79,60,29.83,29.24,28,6,31,0.14
2013-1-30,68.6,47.7,32.8,66.2,42.4,27.0,95,82,64,29.82,29.29,14,1,22,1.14
2013-1-31,54.4,40.0,26.7,37.7,30.0,22.8,94,70,44,30.12,29.82,14,1,14,0.03
2013-2-1,36.1,29.0,22.9,22.8,14.7,9.4,77,56,34,30.32,30.08,9,0,9,0.00
2013-2-2,51.1,36.2,25.8,39.5,29.5,17.7,93,78,52,30.08,29.91,9,0,9,0.03
2013-2-3,54.5,41.9,29.8,37.4,31.0,27.8,94,69,38,29.98,29.89,14,1,15,0.01
2013-2-4,57.7,45.0,32.8,45.3,36.2,29.2,94,73,41,29.89,29.69,13,1,15,0.06
2013-2-5,62.6,48.1,36.9,51.0,43.1,35.3,95,84,51,29.84,29.70,5,0,5,0.00
2013-2-6,62.0,50.2,33.3,46.9,42.0,31.8,95,75,55,29.99,29.82,9,0,9,0.00
2013-2-7,67.3,57.9,47.4,54.7,50.0,40.4,94,76,61,29.82,29.65,10,1,10,0.29
2013-2-8,57.0,44.3,31.3,55.3,39.7,29.1,94,84,71,30.09,29.67,19,2,19,0.35
2013-2-9,51.4,41.9,28.7,40.3,34.6,26.9,94,77,57,30.10,29.82,9,0,9,0.02
2013-2-10,60.4,55.6,51.4,58.4,49.9,38.4,94,82,57,29.82,29.52,18,4,18,0.98
2013-2-11,56.2,48.6,43.8,54.1,37.1,29.1,94,67,37,29.99,29.74,6,0,8,0.00
2013-2-12,52.2,46.0,36.1,41.9,38.3,33.4,93,76,55,29.94,29.57,8,0,8,0.04
2013-2-13,44.5,40.6,34.2,41.9,38.1,32.7,95,91,81,29.81,29.55,8,0,8,0.07
2013-2-14,62.0,44.9,30.3,44.7,36.5,28.8,95,76,38,29.85,29.78,7,0,11,0.01
2013-2-15,54.5,43.4,33.1,40.3,33.0,25.7,94,70,36,29.98,29.83,12,1,13,0.00
2013-2-16,38.5,32.7,25.8,28.9,22.3,19.2,87,67,46,30.05,29.97,10,1,10,0.00
2013-2-17,54.9,42.6,27.9,32.9,27.1,22.7,86,56,37,30.05,29.85,14,2,14,0.00
2013-2-18,57.7,50.8,43.5,52.5,43.3,33.0,94,76,57,29.87,29.55,26,4,27,1.22
2013-2-19,48.6,40.6,27.7,42.2,29.7,23.8,90,67,38,30.06,29.74,14,1,14,0.00
2013-2-20,37.2,33.4,27.2,26.6,20.8,14.0,92,60,45,30.13,29.95,10,0,13,0.00
2013-2-21,46.7,39.5,33.4,44.7,33.3,24.6,95,79,51,29.96,29.53,14,1,14,0.76
2013-2-22,48.9,41.3,36.4,42.1,38.3,34.8,100,89,71,29.87,29.66,4,0,5,0.01
2013-2-23,49.9,38.7,30.3,34.8,30.4,28.0,92,73,45,29.84,29.73,9,0,9,0.00
2013-2-24,58.8,43.2,27.0,36.2,31.7,25.5,94,68,39,29.88,29.67,9,0,10,0.00
2013-2-25,59.0,52.2,42.5,54.8,41.3,29.3,94,67,48,29.68,29.10,20,3,21,0.60
2013-2-26,53.9,44.6,41.1,51.9,39.3,34.4,93,82,71,29.61,29.12,11,1,12,0.00
2013-2-27,46.7,42.4,39.7,38.7,34.6,30.8,85,74,63,29.76,29.61,8,0,13,0.00
2013-2-28,43.1,38.4,31.4,32.3,29.5,27.3,90,70,59,29.89,29.75,11,1,12,0.00
2013-3-1,37.6,35.6,32.5,31.3,29.1,26.6,84,77,70,29.94,29.86,9,1,10,0.00
2013-3-2,34.7,32.5,27.5,29.4,26.4,22.3,90,78,65,30.03,29.91,10,1,10,0.01
2013-3-3,47.0,34.1,20.1,29.7,24.0,18.1,94,69,39,30.01,29.84,7,0,8,0.00
2013-3-4,68.8,53.9,35.1,49.4,35.4,25.5,75,51,29,29.85,29.54,22,3,26,0.00
2013-3-5,63.4,49.9,37.9,57.5,40.5,24.6,98,71,44,29.96,29.55,19,3,22,0.27
2013-3-6,44.9,37.3,30.1,29.5,26.7,22.9,89,66,52,30.14,29.95,17,1,17,0.00
2013-3-7,53.1,40.5,29.5,33.9,30.7,26.9,92,70,42,30.17,30.06,8,0,8,0.00
2013-3-8,63.7,47.4,32.6,38.6,32.3,27.9,90,60,26,30.17,29.95,7,0,9,0.00
2013-3-9,70.2,60.3,45.5,42.6,36.3,30.9,69,42,28,29.95,29.71,18,2,25,0.00
2013-3-10,64.7,58.1,50.5,58.6,51.2,42.3,95,79,46,29.74,29.53,22,5,25,1.03
2013-3-11,49.8,41.8,31.7,48.1,35.8,29.8,94,79,64,29.82,29.61,8,0,9,0.00
2013-3-12,55.6,41.1,27.1,38.4,29.9,22.6,95,69,32,29.99,29.80,10,0,10,0.01
2013-3-13,49.2,41.9,30.9,33.9,28.3,25.8,88,60,41,30.19,29.99,14,1,15,0.00
2013-3-14,62.7,44.1,26.8,38.8,31.1,25.0,94,65,32,30.21,29.95,11,0,11,0.00
2013-3-15,77.3,59.1,40.1,55.0,45.9,36.6,94,65,43,29.95,29.67,14,1,14,0.00
2013-3-16,76.0,65.7,55.2,58.5,53.9,48.6,86,67,50,29.72,29.59,14,1,14,0.00
2013-3-17,72.9,60.9,49.4,58.1,52.9,47.5,94,77,56,29.68,29.46,10,1,10,0.10
2013-3-18,68.0,55.7,41.8,61.9,52.1,39.8,94,88,76,29.82,29.45,14,1,20,0.71
2013-3-19,58.2,46.9,32.8,40.7,31.5,22.6,95,61,26,29.98,29.81,10,0,11,0.00
2013-3-20,53.7,45.9,32.3,38.6,28.2,12.9,92,53,29,30.02,29.86,15,2,15,0.00
2013-3-21,48.4,40.1,28.7,33.3,20.1,13.3,89,47,28,29.90,29.71,9,0,10,0.06
2013-3-22,47.8,42.4,35.2,44.9,40.3,32.4,100,92,89,29.76,29.64,9,0,11,0.52
2013-3-23,54.7,49.7,46.2,50.4,47.1,44.2,94,91,84,29.68,29.45,9,0,10,0.53
2013-3-24,51.1,45.5,36.8,49.4,40.5,27.3,95,83,67,29.75,29.33,16,2,16,0.04
2013-3-25,40.9,36.9,33.2,29.1,25.9,23.2,72,64,56,30.03,29.74,18,3,20,0.00
2013-3-26,46.7,37.3,29.0,30.4,26.7,23.5,89,67,46,30.14,30.02,12,1,12,0.00
2013-3-27,56.4,41.7,24.9,36.5,29.9,23.2,94,67,37,30.20,30.07,7,0,7,0.00
2013-3-28,67.4,50.1,31.6,42.3,35.8,29.5,94,63,32,30.13,29.99,8,0,11,0.00
2013-3-29,65.5,53.7,42.9,53.8,46.6,37.6,93,79,39,30.04,29.94,8,0,10,0.14
2013-3-30,58.9,54.2,50.2,57.5,52.4,48.8,95,94,91,29.96,29.71,6,0,7,0.31
2013-3-31,64.6,57.0,45.6,60.1,54.3,44.2,95,91,78,29.74,29.64,9,0,9,0.04
2013-4-1,68.3,54.4,40.0,51.8,44.9,38.7,95,73,44,29.90,29.71,11,0,11,0.00
2013-4-2,53.7,47.3,40.1,42.6,34.1,29.2,91,61,45,30.03,29.87,14,1,14,0.06
2013-4-3,49.6,45.4,41.2,40.3,32.7,26.0,82,61,44,30.00,29.89,11,0,11,0.07
2013-4-4,49.2,44.8,41.4,45.4,41.9,32.3,95,90,52,29.90,29.74,6,0,6,0.41
2013-4-5,67.4,52.7,42.5,48.3,41.7,35.0,99,72,31,29.95,29.82,8,0,8,0.00
2013-4-6,74.8,57.4,40.3,46.7,42.3,36.1,95,63,26,29.89,29.70,18,2,19,0.00
2013-4-7,72.6,63.3,50.5,58.4,52.8,45.2,87,69,52,29.82,29.69,12,1,14,0.00
2013-4-8,78.7,69.0,60.9,61.6,58.0,52.7,84,69,50,29.77,29.63,21,2,22,0.00
2013-4-9,82.4,73.8,65.9,68.3,65.0,58.9,88,75,59,29.77,29.63,19,4,23,0.00
2013-4-10,83.3,76.8,71.1,68.6,66.3,63.8,85,71,53,29.73,29.45,21,6,21,0.02
2013-4-11,74.1,51.7,41.2,67.3,50.0,39.9,95,94,78,29.60,29.45,14,0,14,2.93
2013-4-12,66.5,51.7,38.3,49.8,43.7,37.0,95,77,46,29.79,29.59,8,0,11,0.00
2013-4-13,72.4,58.9,43.2,50.4,45.1,39.8,94,64,36,29.88,29.69,6,0,7,0.00
2013-4-14,67.3,60.9,51.1,57.5,52.7,47.2,91,75,58,29.70,29.52,19,4,20,0.00
2013-4-15,81.3,69.0,55.0,64.5,60.2,53.0,94,75,52,29.71,29.60,14,2,14,0.00
2013-4-16,84.0,75.8,68.8,72.4,69.4,64.2,93,81,64,29.82,29.69,20,3,20,0.00
2013-4-17,85.7,75.9,65.5,73.1,68.6,63.7,94,79,56,29.85,29.62,17,3,19,0.00
2013-4-18,78.7,70.3,45.4,69.2,62.7,43.5,94,78,58,29.66,29.36,22,5,22,2.05
2013-4-19,54.4,46.8,39.7,43.8,37.3,32.8,94,71,46,29.92,29.62,8,1,10,0.00
2013-4-20,66.3,52.2,36.3,47.6,39.8,34.7,95,68,34,30.04,29.92,7,0,8,0.00
2013-4-21,69.3,57.5,44.4,45.7,40.2,35.4,87,55,30,30.11,29.94,8,0,10,0.00
2013-4-22,73.2,59.7,42.7,53.1,47.8,40.9,94,68,43,29.98,29.78,12,2,14,0.00
2013-4-23,73.9,65.9,56.9,62.8,59.0,51.7,91,79,65,29.84,29.67,16,3,19,0.00
2013-4-24,68.8,49.4,40.0,63.7,45.2,38.4,94,86,63,30.07,29.64,11,1,11,0.65
2013-4-25,67.3,51.5,34.4,47.4,39.9,32.9,95,70,33,30.17,30.06,7,0,7,0.00
2013-4-26,69.7,55.3,44.3,56.2,46.9,41.2,93,75,37,30.18,29.97,11,1,12,0.06
2013-4-27,74.0,63.5,54.8,67.4,59.4,49.3,94,87,77,30.00,29.64,11,1,14,0.06
2013-4-28,66.7,60.6,50.8,59.6,55.9,49.1,94,85,69,29.76,29.70,8,0,9,0.02
2013-4-29,78.2,62.6,46.2,61.5,54.0,44.6,95,77,46,29.79,29.64,7,0,7,0.00
2013-4-30,81.7,67.3,51.4,63.0,56.2,49.7,94,71,38,29.74,29.65,11,1,13,0.00
2013-5-1,77.5,68.9,59.8,66.4,62.1,56.3,92,80,65,29.82,29.70,13,2,15,0.00
2013-5-2,68.7,64.2,61.1,62.7,61.0,58.7,94,89,79,29.88,29.76,7,0,7,0.83
2013-5-3,63.4,48.0,37.1,61.6,46.6,35.8,95,95,94,29.79,29.67,4,0,5,2.29
2013-5-4,56.3,45.2,34.5,46.4,40.8,33.2,95,86,58,29.76,29.66,9,0,11,0.17
2013-5-5,61.1,51.0,44.8,50.5,46.6,43.4,95,86,58,29.72,29.64,9,0,9,0.47
2013-5-6,64.1,57.7,52.9,57.7,54.4,50.3,94,89,76,29.74,29.64,8,0,8,0.03
2013-5-7,73.8,62.3,49.2,62.0,56.2,47.5,95,82,56,29.79,29.71,6,0,6,0.00
2013-5-8,80.8,66.3,51.0,65.6,57.9,49.3,95,77,48,29.85,29.77,6,0,7,0.00
2013-5-9,80.1,68.9,56.9,66.7,61.4,55.4,95,79,54,29.85,29.72,18,1,19,0.01
2013-5-10,73.1,67.3,63.6,70.6,65.1,61.8,95,93,85,29.74,29.63,8,0,9,2.39
2013-5-11,72.5,65.0,56.9,63.4,58.4,52.8,95,81,52,29.84,29.69,8,0,8,0.00
2013-5-12,66.5,59.0,46.1,56.7,41.2,33.7,94,54,30,30.00,29.83,13,0,13,0.00
2013-5-13,75.0,60.3,43.2,57.5,48.9,41.6,95,70,38,30.05,29.89,8,0,9,0.00
2013-5-14,86.0,70.7,55.2,65.2,57.8,52.2,92,67,37,29.91,29.78,11,0,12,0.00
2013-5-15,84.7,74.0,60.6,62.5,58.1,53.6,86,59,39,29.90,29.72,14,0,15,0.00
2013-5-16,75.3,69.9,63.3,66.7,63.1,60.5,94,80,63,29.77,29.66,10,1,11,0.03
2013-5-17,80.0,70.4,65.4,72.4,66.8,63.3,95,89,70,29.72,29.65,12,1,13,0.22
2013-5-18,82.6,74.4,64.4,76.0,70.8,62.6,95,89,75,29.76,29.67,8,1,10,0.00
2013-5-19,85.8,78.9,71.6,74.0,70.6,66.7,94,77,57,29.74,29.63,15,2,15,0.00
2013-5-20,85.9,80.1,73.9,74.3,71.9,70.5,91,77,65,29.72,29.59,16,4,18,0.00
2013-5-21,77.6,69.9,63.7,71.7,67.4,62.1,95,92,74,29.74,29.52,10,1,16,3.74
2013-5-22,80.0,69.5,62.7,69.9,64.7,61.2,95,86,63,29.68,29.53,13,1,16,0.05
2013-5-23,82.1,72.2,60.8,67.2,63.1,58.8,95,75,54,29.89,29.68,7,0,9,0.00
2013-5-24,75.4,65.7,55.5,59.3,53.4,48.2,92,67,40,30.06,29.88,12,1,14,0.00
2013-5-25,79.8,65.7,50.8,64.6,55.4,48.8,94,72,42,30.08,29.91,9,0,11,0.00
2013-5-26,82.5,70.6,56.3,66.5,59.3,54.8,95,71,40,29.97,29.84,10,1,11,0.00
2013-5-27,84.4,74.1,61.4,71.8,64.2,59.4,94,73,47,29.87,29.73,13,2,14,0.00
2013-5-28,86.2,77.7,71.0,72.1,65.5,60.1,85,68,44,29.81,29.72,13,3,14,0.00
2013-5-29,85.9,76.7,61.9,71.7,66.3,59.2,92,71,48,29.81,29.68,15,4,16,0.00
2013-5-30,84.5,76.7,72.8,73.4,70.3,67.2,91,81,66,29.78,29.66,21,5,24,0.01
2013-5-31,84.5,77.4,68.4,76.1,72.6,66.3,94,86,72,29.76,29.60,19,4,19,0.50
2013-6-1,83.0,73.0,66.5,75.0,70.0,64.4,95,91,65,29.76,29.56,14,3,14,0.42
2013-6-2,79.5,71.3,66.1,70.6,66.2,61.1,95,85,63,29.73,29.66,6,0,6,0.01
2013-6-3,80.5,69.9,59.0,66.4,62.2,57.4,95,78,53,29.79,29.67,6,0,7,0.00
2013-6-4,84.8,72.6,61.2,71.0,64.6,59.5,94,78,51,29.78,29.66,7,0,8,0.00
2013-6-5,88.2,76.7,66.3,77.8,70.4,64.2,94,82,62,29.71,29.55,13,1,14,0.65
2013-6-6,82.2,74.1,67.3,71.7,68.4,65.5,95,83,65,29.60,29.51,7,0,7,0.00
2013-6-7,81.4,72.6,60.9,68.2,62.9,56.3,92,73,47,29.66,29.54,6,0,7,0.00
2013-6-8,82.8,73.1,57.2,66.0,60.3,55.4,95,67,41,29.75,29.65,9,1,9,0.00
2013-6-9,88.3,75.5,64.6,74.7,68.3,60.8,94,79,56,29.75,29.56,11,2,16,0.01
2013-6-10,92.9,79.6,67.2,75.1,69.7,65.4,95,74,42,29.70,29.63,11,0,11,0.00
2013-6-11,95.8,82.4,69.7,78.7,73.2,67.9,94,76,47,29.79,29.69,7,0,10,0.00
2013-6-12,94.6,83.9,71.4,81.2,75.3,69.6,95,77,53,29.81,29.66,14,0,14,0.00
2013-6-13,93.1,83.7,74.3,79.5,73.0,66.1,90,71,48,29.72,29.62,9,0,11,0.00
2013-6-14,86.3,76.0,64.6,67.5,62.9,57.0,94,67,43,29.81,29.70,8,0,11,0.00
2013-6-15,87.7,75.2,61.4,71.8,65.3,59.7,96,74,46,29.83,29.71,9,0,9,0.00
2013-6-16,88.8,77.5,68.3,78.4,71.0,66.5,94,81,60,29.80,29.70,10,0,11,0.00
2013-6-17,80.6,74.4,70.9,76.4,71.8,68.7,94,92,82,29.75,29.60,11,1,16,0.93
2013-6-18,83.4,73.9,68.5,73.4,69.6,66.7,95,87,62,29.74,29.59,5,0,8,0.01
2013-6-19,88.8,75.3,65.4,74.6,68.9,63.6,95,83,50,29.80,29.71,9,0,15,0.09
2013-6-20,89.9,78.1,66.1,76.3,70.0,64.6,95,78,49,29.88,29.79,7,0,7,0.00
2013-6-21,88.8,79.0,68.9,75.5,71.3,67.4,95,79,53,29.92,29.82,9,1,12,0.00
2013-6-22,88.7,79.1,69.0,75.2,70.9,67.3,95,78,53,29.90,29.77,10,1,10,0.00
2013-6-23,89.2,79.1,69.1,75.3,70.7,66.8,94,77,53,29.87,29.76,9,1,10,0.00
2013-6-24,90.7,81.5,71.0,78.9,73.7,69.4,95,79,57,29.89,29.76,10,1,10,0.00
2013-6-25,90.3,82.5,74.0,77.8,73.5,69.7,93,76,54,29.84,29.69,9,1,11,0.00
2013-6-26,92.4,83.4,72.9,77.4,73.0,69.6,93,73,49,29.76,29.61,16,1,16,0.00
2013-6-27,97.1,84.3,72.4,83.3,76.5,70.4,94,79,60,29.69,29.57,22,0,22,0.35
2013-6-28,87.7,76.8,71.9,78.9,72.5,70.0,95,87,59,29.67,29.47,10,0,12,1.04
2013-6-29,88.2,77.2,65.3,72.4,66.4,61.6,95,72,44,29.53,29.44,7,0,12,0.00
2013-6-30,79.9,72.0,63.2,69.0,65.2,61.4,95,80,62,29.59,29.48,9,0,10,0.02
2013-7-1,80.5,72.2,65.9,69.6,65.7,61.7,95,81,64,29.70,29.57,9,0,11,0.01
2013-7-2,83.3,73.0,60.8,69.1,64.4,59.4,95,76,51,29.80,29.68,8,0,8,0.00
2013-7-3,84.1,72.0,61.0,69.3,64.5,59.6,95,79,50,29.86,29.76,4,0,4,0.00
2013-7-4,87.7,75.3,62.6,73.2,67.5,61.1,95,79,49,29.80,29.69,10,0,15,0.00
2013-7-5,85.1,74.2,66.1,75.3,69.0,64.1,95,85,63,29.82,29.71,17,1,17,0.78
2013-7-6,85.6,75.1,66.3,73.7,69.9,64.2,95,85,61,29.83,29.72,11,1,11,0.00
2013-7-7,85.4,77.4,70.2,76.4,72.5,68.7,95,86,65,29.86,29.78,11,1,12,0.00
2013-7-8,87.8,77.2,71.2,78.1,73.3,69.7,95,88,65,29.91,29.81,8,1,9,0.00
2013-7-9,92.9,83.1,72.9,80.0,74.7,71.4,95,78,54,29.89,29.75,10,0,11,0.00
2013-7-10,94.8,84.4,74.4,82.5,77.2,72.2,94,80,59,29.81,29.63,8,0,9,0.00
2013-7-11,94.1,82.9,72.8,80.6,73.1,65.7,95,74,53,29.71,29.64,7,0,8,0.00
2013-7-12,87.3,77.1,66.0,68.6,64.5,61.4,87,66,47,29.78,29.69,12,0,12,0.00
2013-7-13,86.3,75.2,62.4,66.1,62.6,59.9,94,68,45,29.79,29.69,9,0,13,0.00
2013-7-14,86.6,76.6,65.6,75.0,69.4,63.0,93,80,61,29.83,29.72,11,1,14,0.00
2013-7-15,87.8,78.3,73.6,77.3,73.5,71.2,95,86,63,29.94,29.82,15,2,15,0.12
2013-7-16,90.5,79.2,71.2,77.0,73.2,69.4,95,83,58,30.02,29.93,15,1,17,0.08
2013-7-17,93.1,81.4,70.3,78.3,73.1,68.6,95,78,50,30.05,29.90,10,0,10,0.01
2013-7-18,92.3,77.2,71.1,79.3,73.7,69.5,95,90,60,29.94,29.80,12,0,15,0.40
2013-7-19,87.0,77.8,69.8,77.2,72.6,68.1,95,85,66,29.84,29.69,9,1,11,0.00
2013-7-20,91.6,80.4,70.8,78.8,73.9,69.3,95,82,59,29.74,29.60,10,0,10,0.00
2013-7-21,91.7,81.8,72.3,78.9,74.2,70.8,95,79,54,29.73,29.63,9,0,14,0.00
2013-7-22,85.3,77.6,71.9,77.8,74.0,70.1,95,89,69,29.74,29.62,10,0,11,2.14
2013-7-23,87.6,77.4,70.2,79.1,74.5,68.7,95,91,73,29.78,29.59,9,0,10,0.84
2013-7-24,84.7,79.1,73.7,77.1,74.0,69.5,95,85,69,29.72,29.61,6,0,8,0.00
2013-7-25,83.2,74.6,65.0,70.1,65.2,60.6,95,74,48,29.83,29.71,6,0,7,0.00
2013-7-26,82.5,72.1,61.2,71.5,66.4,59.8,95,83,57,29.83,29.71,6,0,6,0.00
2013-7-27,84.1,74.1,68.0,73.4,69.4,66.5,95,86,60,29.76,29.65,4,0,8,0.08
2013-7-28,81.8,73.4,67.7,68.7,65.3,62.6,95,77,59,29.82,29.70,8,0,8,0.00
2013-7-29,86.9,75.7,67.5,74.0,66.9,61.6,93,76,56,29.91,29.81,9,1,9,0.00
2013-7-30,83.9,77.6,73.1,76.8,72.6,68.1,94,85,69,29.90,29.77,8,1,8,0.10
2013-7-31,89.0,78.0,72.8,80.4,74.7,71.3,95,90,70,29.82,29.67,11,0,12,0.91
2013-8-1,86.5,77.6,69.5,77.2,71.7,67.9,95,83,60,29.80,29.72,7,0,7,0.00
2013-8-2,87.3,76.2,65.3,76.4,69.7,63.8,95,82,50,29.79,29.70,8,1,11,0.00
2013-8-3,83.4,77.0,71.3,77.7,73.5,69.5,95,89,79,29.82,29.69,9,0,9,0.00
2013-8-4,88.6,78.5,68.4,77.8,72.6,66.9,95,83,62,29.87,29.78,5,0,5,0.01
2013-8-5,82.1,76.4,72.5,76.6,72.9,68.8,95,89,78,29.81,29.67,10,1,10,0.28
2013-8-6,86.1,79.7,74.1,79.7,75.8,72.6,95,88,77,29.71,29.63,9,1,12,0.00
2013-8-7,90.2,81.9,74.8,80.8,76.5,73.0,95,85,61,29.71,29.61,7,0,9,0.00
2013-8-8,93.7,83.9,76.0,81.0,77.5,74.5,95,82,58,29.71,29.61,8,0,9,0.00
2013-8-9,93.0,83.8,74.5,81.6,76.7,72.6,95,81,54,29.77,29.68,7,0,10,0.00
2013-8-10,86.5,80.0,74.7,78.6,75.2,73.2,95,86,67,29.88,29.76,8,0,8,0.00
2013-8-11,86.1,78.3,74.5,80.0,75.6,72.6,95,91,79,29.88,29.80,9,0,9,0.50
2013-8-12,91.0,80.4,71.6,80.6,75.5,70.0,95,86,66,29.82,29.68,10,0,11,0.09
2013-8-13,84.3,77.0,70.2,77.0,72.4,68.7,95,87,68,29.77,29.67,5,0,5,0.01
2013-8-14,79.2,73.1,67.0,69.3,62.3,57.0,87,70,50,29.83,29.72,10,1,11,0.00
2013-8-15,78.9,69.0,58.6,63.4,58.5,55.1,91,71,45,29.84,29.75,7,0,8,0.00
2013-8-16,81.6,71.5,61.1,70.6,65.4,59.1,94,82,60,29.81,29.73,7,0,8,0.00
2013-8-17,80.1,72.9,66.4,70.8,67.7,64.6,95,84,67,29.84,29.76,10,0,11,0.00
2013-8-18,82.2,73.3,66.7,73.2,68.6,65.0,95,86,65,29.88,29.78,8,0,9,0.00
2013-8-19,85.8,75.3,65.0,72.9,69.0,63.5,95,82,57,29.86,29.75,8,0,9,0.00
2013-8-20,88.3,77.3,67.2,75.9,71.5,65.7,95,84,59,29.85,29.76,7,0,7,0.00
2013-8-21,91.8,78.3,69.7,78.3,73.0,68.2,95,85,53,29.89,29.80,7,0,7,0.11
2013-8-22,90.8,78.6,71.5,80.3,74.1,70.0,95,87,60,29.89,29.76,10,0,10,0.31
2013-8-23,90.8,79.2,69.0,77.8,72.2,67.5,95,81,52,29.83,29.73,8,0,9,0.00
2013-8-24,91.0,81.2,71.3,78.7,74.0,69.8,95,80,57,29.89,29.79,7,0,8,0.00
2013-8-25,87.1,78.0,73.0,77.1,73.6,71.2,95,87,64,30.01,29.89,13,1,13,0.00
2013-8-26,88.6,77.7,69.1,74.7,70.6,67.6,96,81,57,30.02,29.88,8,0,8,0.00
2013-8-27,88.0,77.2,65.8,73.8,69.2,64.3,95,79,51,29.92,29.79,5,0,7,0.00
2013-8-28,91.1,77.2,65.9,73.3,69.4,64.4,95,79,47,29.86,29.76,6,0,6,0.00
2013-8-29,92.7,78.9,67.2,77.4,71.6,65.7,95,81,51,29.84,29.72,4,0,4,0.00
2013-8-30,94.1,81.0,70.3,77.4,73.3,68.8,95,80,52,29.78,29.64,5,0,6,0.00
2013-8-31,95.1,82.5,70.9,78.2,73.7,69.4,95,77,51,29.69,29.57,6,0,10,0.00
2013-9-1,94.6,80.6,72.1,79.2,74.0,70.6,95,82,54,29.66,29.56,11,1,14,0.00
2013-9-2,88.8,80.8,73.8,77.8,74.8,72.2,95,83,63,29.70,29.58,9,0,11,0.00
2013-12-5,56.6,41.8,34.5,53.1,38.8,33.0,94,89,79,29.92,29.71,11,1,12,0.00
2013-12-6,34.5,31.4,26.0,33.5,29.7,24.0,99,93,91,30.21,29.82,8,0,12,0.00
2013-12-7,29.5,26.1,22.7,27.6,23.9,19.9,93,91,89,30.33,30.09,0,0,0,0.00
2013-12-8,34.4,32.5,29.4,33.1,31.1,27.6,95,95,93,30.12,29.84,3,0,4,0.00
2013-12-9,33.6,32.3,31.3,31.1,29.6,28.5,95,90,85,30.07,29.93,6,0,8,0.00
2013-12-10,38.4,30.2,23.1,30.4,25.8,21.2,94,84,68,30.22,29.98,5,0,5,0.00
2013-12-11,45.4,32.7,20.3,35.8,27.3,18.6,95,81,56,30.35,30.15,6,0,8,0.00
2013-12-12,44.2,31.0,19.7,25.0,20.5,14.2,90,68,35,30.39,30.16,6,0,8,0.00
2013-12-13,47.7,35.6,22.9,38.2,27.8,20.9,100,76,40,30.16,29.68,11,1,17,0.00
2013-12-14,44.9,40.7,35.8,43.6,38.1,31.1,95,90,83,29.92,29.58,13,1,13,0.00
2013-12-15,38.6,33.9,29.0,32.1,29.7,26.9,94,84,75,30.06,29.92,6,0,9,0.00
2013-12-16,57.3,43.0,28.6,41.6,35.5,27.1,95,76,53,30.01,29.90,9,0,11,0.00
2013-12-17,59.7,44.7,30.0,43.8,36.7,28.1,94,75,51,30.07,29.93,8,0,9,0.00
2013-12-18,59.0,44.1,27.4,39.7,33.5,25.9,95,69,40,30.13,29.89,12,2,12,0.01
2013-12-19,61.4,53.7,42.3,54.7,46.5,36.9,84,77,67,29.93,29.72,16,4,18,0.00
2013-12-20,68.6,64.3,59.8,64.9,60.4,54.4,94,87,79,29.76,29.58,19,4,19,0.28
2013-12-21,76.1,67.2,54.8,68.4,62.6,53.1,95,86,71,29.58,29.24,28,5,31,1.45
2013-12-22,55.4,49.2,37.5,53.2,46.8,32.2,95,91,81,30.02,29.48,9,1,12,0.01
2013-12-23,37.5,33.4,24.9,32.5,27.4,23.1,100,79,67,30.29,30.01,10,1,11,0.00
2013-12-24,35.9,28.3,22.9,24.2,20.6,17.1,94,74,48,30.38,30.18,8,0,8,0.00
2013-12-25,48.9,33.4,20.8,33.0,25.3,18.3,92,74,42,30.20,30.08,7,0,8,0.00
2013-12-26,47.7,34.9,26.1,33.8,27.7,24.0,95,77,45,30.22,30.11,10,0,10,0.00
2013-12-27,55.3,36.8,23.8,35.3,28.2,22.1,95,75,37,30.25,30.13,3,0,4,0.00
2013-12-28,46.9,39.0,29.5,41.0,35.4,27.5,95,88,69,30.13,29.75,5,0,6,0.05
2013-12-29,56.2,44.9,35.8,46.2,39.8,30.6,95,83,64,29.97,29.73,11,0,11,0.03
2013-12-30,36.0,31.5,29.0,30.7,26.8,24.2,92,82,78,30.14,29.96,6,0,7,0.00
2013-12-31,47.8,32.3,21.0,32.3,26.1,19.3,100,80,52,30.24,30.08,6,0,7,0.01
2014-1-1,53.5,40.3,23.1,44.5,32.8,21.4,94,77,50,30.09,29.72,11,1,12,0.03
2014-1-2,50.1,34.8,23.9,48.4,28.3,14.1,94,77,64,30.22,29.66,13,2,15,0.21